Time;durP1;ratioP1;P1;durP2;ratioP2;P2;SDS_P1;SDS_P2;PMS_P1;PMS_P2;Temp;Humidity;BMP_temperature;BMP_pressure;BME280_temperature;BME280_humidity;BME280_pressure;Samples;Min_cycle;Max_cycle;Signal;HPM_P1;HPM_P2
2023/10/01 00:00:36;;;;;;;0.40;0.20;;;;;;;;;;5009136;28;20217;-79
2023/10/01 00:03:05;;;;;;;5.88;2.30;;;11.60;99.90;;;;;;4987602;28;20257;-82
2023/10/01 00:05:30;;;;;;;0.60;0.30;;;11.50;99.90;;;;;;5007521;28;20217;-82
2023/10/01 00:07:56;;;;;;;0.40;0.30;;;11.40;99.90;;;;;;5012524;28;20211;-81
2023/10/01 00:10:22;;;;;;;2.30;1.43;;;11.20;99.90;;;;;;5011588;28;20210;-81
2023/10/01 00:12:49;;;;;;;0.50;0.40;;;11.20;99.90;;;;;;4997403;28;20225;-80
2023/10/01 00:15:17;;;;;;;0.40;0.20;;;12.50;99.90;;;;;;4997796;28;20206;-81
2023/10/01 00:17:48;;;;;;;0.60;0.40;;;11.30;99.90;;;;;;4993371;28;20782;-84
2023/10/01 00:20:20;;;;;;;0.40;0.30;;;11.50;99.90;;;;;;5000574;28;20269;-81
2023/10/01 00:22:46;;;;;;;2.35;1.10;;;;;;;;;;5012847;28;20182;-83
2023/10/01 00:25:12;;;;;;;0.40;0.20;;;11.50;99.90;;;;;;5011302;28;20178;-81
2023/10/01 00:27:38;;;;;;;0.40;0.30;;;11.50;99.90;;;;;;4998369;28;20276;-82
2023/10/01 00:30:09;;;;;;;1.67;0.77;;;11.30;99.90;;;;;;5010766;28;20483;-80
2023/10/01 00:32:36;;;;;;;0.47;0.47;;;;;;;;;;5010641;28;20265;-87
2023/10/01 00:35:03;;;;;;;2.78;1.88;;;11.10;99.90;;;;;;5015882;28;20667;-80
2023/10/01 00:37:28;;;;;;;1.30;1.20;;;10.90;99.90;;;;;;5013329;28;20179;-85
2023/10/01 00:39:56;;;;;;;0.93;0.77;;;12.00;99.90;;;;;;5008962;28;20190;-84
2023/10/01 00:42:23;;;;;;;0.40;0.20;;;10.80;99.90;;;;;;5019433;28;20218;-81
2023/10/01 00:44:48;;;;;;;0.70;0.63;;;10.80;99.90;;;;;;5014040;28;20521;-82
2023/10/01 00:47:16;;;;;;;0.73;0.70;;;;;;;;;;4988309;28;20312;-82
2023/10/01 00:49:48;;;;;;;0.90;0.60;;;10.80;99.90;;;;;;4987657;28;20300;-83
2023/10/01 00:52:23;;;;;;;0.60;0.47;;;10.80;99.90;;;;;;4987902;28;20236;-82
2023/10/01 00:54:50;;;;;;;0.52;0.52;;;;;;;;;;5005254;28;20186;-81
2023/10/01 00:57:16;;;;;;;0.40;0.35;;;;;;;;;;5015753;28;20182;-82
2023/10/01 00:59:45;;;;;;;0.40;0.30;;;10.70;99.90;;;;;;4985565;28;20222;-83
2023/10/01 01:02:15;;;;;;;2.15;0.93;;;;;;;;;;5005288;28;20213;-84
2023/10/01 01:04:45;;;;;;;0.50;0.47;;;10.60;99.90;;;;;;5007894;28;20194;-83
2023/10/01 01:07:20;;;;;;;0.40;0.32;;;10.60;99.90;;;;;;5003996;28;20476;-83
2023/10/01 01:09:47;;;;;;;0.80;0.40;;;10.70;99.90;;;;;;5004933;28;20853;-85
2023/10/01 01:12:13;;;;;;;0.52;0.52;;;10.70;99.90;;;;;;5010404;28;20234;-84
2023/10/01 01:14:44;;;;;;;0.57;0.50;;;11.30;99.90;;;;;;5010735;28;20194;-83
2023/10/01 01:17:12;;;;;;;3.05;1.10;;;10.70;99.90;;;;;;4991975;28;20464;-83
2023/10/01 01:19:38;;;;;;;0.40;0.40;;;10.70;99.90;;;;;;4988216;28;20218;-82
2023/10/01 01:22:04;;;;;;;0.52;0.47;;;9.30;99.90;;;;;;5011493;28;20182;-82
2023/10/01 01:24:30;;;;;;;0.50;0.40;;;;;;;;;;5010170;28;20553;-80
2023/10/01 01:27:00;;;;;;;0.40;0.30;;;10.70;99.90;;;;;;4995786;28;20186;-78
2023/10/01 01:29:33;;;;;;;0.50;0.30;;;10.70;99.90;;;;;;5012193;28;20222;-82
2023/10/01 01:32:07;;;;;;;1.35;0.40;;;;;;;;;;5006695;28;20190;-83
2023/10/01 01:34:36;;;;;;;0.40;0.30;;;10.60;99.90;;;;;;4984746;28;20187;-86
2023/10/01 01:37:06;;;;;;;0.40;0.38;;;10.60;99.90;;;;;;4990745;28;20261;-79
2023/10/01 01:39:48;;;;;;;0.40;0.20;;;10.60;99.90;;;;;;4992320;28;20233;-81
2023/10/01 01:42:19;;;;;;;0.40;0.30;;;11.50;99.90;;;;;;4991727;28;20182;-81
2023/10/01 01:44:47;;;;;;;1.02;1.02;;;10.50;99.90;;;;;;4993485;28;20190;-82
2023/10/01 01:47:15;;;;;;;0.40;0.20;;;10.40;99.90;;;;;;5007626;28;20213;-81
2023/10/01 01:49:43;;;;;;;0.40;0.30;;;10.40;99.90;;;;;;5010415;28;20214;-82
2023/10/01 01:52:09;;;;;;;0.57;0.55;;;10.40;99.90;;;;;;5011609;28;20206;-80
2023/10/01 01:54:39;;;;;;;0.40;0.30;;;10.40;99.90;;;;;;4992283;28;20178;-80
2023/10/01 01:57:13;;;;;;;2.35;2.25;;;10.40;99.90;;;;;;5012855;28;20206;-79
2023/10/01 01:59:40;;;;;;;1.98;1.85;;;;;;;;;;4994433;28;20232;-81
2023/10/01 02:02:09;;;;;;;4.43;1.65;;;10.30;99.90;;;;;;5009934;28;20210;-80
2023/10/01 02:04:36;;;;;;;0.40;0.20;;;10.40;99.90;;;;;;5010965;28;20187;-82
2023/10/01 02:07:02;;;;;;;0.98;0.73;;;;;;;;;;5006966;28;20199;-85
2023/10/01 02:09:27;;;;;;;2.05;1.85;;;10.40;99.90;;;;;;5006036;28;20202;-79
2023/10/01 02:11:53;;;;;;;1.23;0.70;;;;;;;;;;5008959;28;20182;-82
2023/10/01 02:14:32;;;;;;;0.40;0.20;;;10.30;99.90;;;;;;5007631;28;20182;-83
2023/10/01 02:17:05;;;;;;;0.40;0.20;;;10.30;99.90;;;;;;5007588;28;20179;-83
2023/10/01 02:19:35;;;;;;;0.50;0.40;;;;;;;;;;5006952;28;20602;-80
2023/10/01 02:22:02;;;;;;;1.30;1.20;;;10.30;99.90;;;;;;4992397;28;20198;-84
2023/10/01 02:24:44;;;;;;;4.53;1.58;;;10.30;99.90;;;;;;4992146;28;20178;-80
2023/10/01 02:27:15;;;;;;;0.40;0.30;;;10.20;99.90;;;;;;4994701;28;20201;-81
2023/10/01 02:32:28;;;;;;;0.40;0.28;;;10.10;99.90;;;;;;5007930;28;20244;-80
2023/10/01 02:34:56;;;;;;;0.63;0.63;;;10.00;99.90;;;;;;5007671;28;20175;-84
2023/10/01 02:37:29;;;;;;;1.05;1.05;;;10.00;99.90;;;;;;5020803;28;20194;-81
2023/10/01 02:39:56;;;;;;;0.40;0.32;;;10.00;99.90;;;;;;5009858;28;20178;-79
2023/10/01 02:42:22;;;;;;;2.45;1.33;;;10.00;99.90;;;;;;4990692;28;20951;-82
2023/10/01 02:44:48;;;;;;;0.40;0.20;;;10.00;99.90;;;;;;5005943;28;20198;-79
2023/10/01 02:47:23;;;;;;;0.40;0.20;;;10.10;99.90;;;;;;5020512;28;20716;-80
2023/10/01 02:49:54;;;;;;;0.50;0.50;;;10.10;99.90;;;;;;4996991;28;20216;-79
2023/10/01 02:52:36;;;;;;;0.90;0.90;;;10.00;99.90;;;;;;4984781;28;20179;-83
2023/10/01 02:55:17;;;;;;;0.70;0.57;;;9.90;99.90;;;;;;5006426;28;20220;-81
2023/10/01 02:57:43;;;;;;;0.70;0.70;;;9.90;99.90;;;;;;5009059;28;20237;-84
2023/10/01 03:02:44;;;;;;;0.40;0.30;;;9.80;99.90;;;;;;4998901;28;20187;-81
2023/10/01 03:05:19;;;;;;;0.40;0.22;;;9.70;99.90;;;;;;4987394;28;20199;-79
2023/10/01 03:07:45;;;;;;;0.80;0.80;;;9.60;99.90;;;;;;4985739;28;20689;-79
2023/10/01 03:10:29;;;;;;;1.52;1.42;;;9.70;99.90;;;;;;5001957;28;20271;-79
2023/10/01 03:12:57;;;;;;;0.50;0.40;;;9.70;99.90;;;;;;4993769;28;20277;-78
2023/10/01 03:15:24;;;;;;;0.40;0.30;;;9.70;99.90;;;;;;5005529;28;20202;-84
2023/10/01 03:17:57;;;;;;;0.85;0.85;;;9.70;99.90;;;;;;4985255;28;20241;-84
2023/10/01 03:23:07;;;;;;;0.40;0.20;;;9.80;99.90;;;;;;5004184;28;20248;-83
2023/10/01 03:25:55;;;;;;;0.40;0.30;;;9.70;99.90;;;;;;4989994;28;20290;-84
2023/10/01 03:28:27;;;;;;;0.50;0.45;;;9.70;99.90;;;;;;4990271;28;20206;-85
2023/10/01 03:31:06;;;;;;;0.75;0.40;;;9.60;99.90;;;;;;4988212;28;20225;-80
2023/10/01 03:33:39;;;;;;;0.65;0.65;;;9.60;99.90;;;;;;4988259;28;20201;-81
2023/10/01 03:36:09;;;;;;;0.88;0.63;;;9.50;99.90;;;;;;4987683;28;20668;-83
2023/10/01 03:38:38;;;;;;;0.40;0.20;;;9.50;99.90;;;;;;4981422;28;20272;-81
2023/10/01 03:41:20;;;;;;;0.40;0.30;;;10.00;99.90;;;;;;5002537;28;21981;-80
2023/10/01 03:43:47;;;;;;;0.40;0.20;;;9.50;99.90;;;;;;4997616;28;20322;-79
2023/10/01 03:46:14;;;;;;;0.40;0.40;;;;;;;;;;5016664;28;20241;-84
2023/10/01 03:51:58;;;;;;;0.40;0.30;;;9.50;99.90;;;;;;4975018;28;20217;-79
2023/10/01 03:57:12;;;;;;;1.63;1.10;;;9.40;99.90;;;;;;5005800;28;20278;-81
2023/10/01 03:59:38;;;;;;;0.40;0.40;;;9.30;99.90;;;;;;5004148;28;20206;-80
2023/10/01 04:02:26;;;;;;;0.40;0.20;;;9.90;99.90;;;;;;5007054;28;20194;-81
2023/10/01 04:04:58;;;;;;;0.40;0.30;;;9.30;99.90;;;;;;5005110;28;20190;-80
2023/10/01 04:07:26;;;;;;;0.40;0.30;;;9.40;99.90;;;;;;4998647;28;20186;-82
2023/10/01 04:09:52;;;;;;;1.50;1.40;;;9.40;99.90;;;;;;4982005;28;20564;-83
2023/10/01 04:12:19;;;;;;;0.52;0.52;;;9.40;99.90;;;;;;4989330;28;20187;-85
2023/10/01 04:14:48;;;;;;;0.98;0.85;;;9.60;99.90;;;;;;4990801;28;20192;-82
2023/10/01 04:17:18;;;;;;;1.25;1.17;;;9.30;99.90;;;;;;5006854;28;20186;-84
2023/10/01 04:19:49;;;;;;;1.35;0.47;;;9.20;99.90;;;;;;4992033;28;20210;-84
2023/10/01 04:22:16;;;;;;;0.40;0.30;;;9.10;99.90;;;;;;4990434;28;20225;-87
2023/10/01 04:24:43;;;;;;;1.02;1.00;;;9.20;99.90;;;;;;5001930;28;20327;-80
2023/10/01 04:27:23;;;;;;;2.40;2.20;;;9.20;99.90;;;;;;4986601;28;20191;-79
2023/10/01 04:29:58;;;;;;;2.15;1.95;;;9.20;99.90;;;;;;5015969;28;20214;-83
2023/10/01 04:32:27;;;;;;;0.77;0.77;;;9.30;99.90;;;;;;5008073;28;20196;-80
2023/10/01 04:34:54;;;;;;;0.40;0.20;;;9.20;99.90;;;;;;4997736;28;20240;-85
2023/10/01 04:37:36;;;;;;;0.55;0.55;;;;;;;;;;4986098;28;20187;-82
2023/10/01 04:40:03;;;;;;;0.50;0.50;;;9.40;99.90;;;;;;4985079;28;20458;-78
2023/10/01 04:42:29;;;;;;;0.40;0.25;;;9.40;99.90;;;;;;5004065;28;20198;-81
2023/10/01 04:44:55;;;;;;;0.68;0.63;;;10.80;99.90;;;;;;5005770;28;20205;-87
2023/10/01 04:47:40;;;;;;;1.70;1.50;;;9.30;99.90;;;;;;5004644;28;20194;-84
2023/10/01 04:50:06;;;;;;;0.40;0.30;;;9.20;99.90;;;;;;5005639;28;20209;-81
2023/10/01 04:52:32;;;;;;;0.40;0.28;;;9.10;99.90;;;;;;5013702;28;20225;-82
2023/10/01 04:54:58;;;;;;;0.50;0.50;;;9.10;99.90;;;;;;4999304;28;20607;-79
2023/10/01 04:57:25;;;;;;;0.40;0.32;;;9.10;99.90;;;;;;5009659;28;20719;-87
2023/10/01 04:59:56;;;;;;;0.40;0.30;;;9.10;99.90;;;;;;5009712;28;20188;-82
2023/10/01 05:02:23;;;;;;;0.40;0.30;;;9.10;99.90;;;;;;4989423;28;20589;-81
2023/10/01 05:04:49;;;;;;;1.10;1.00;;;;;;;;;;4994925;28;20198;-78
2023/10/01 05:07:15;;;;;;;1.27;0.60;;;9.10;99.90;;;;;;4979466;28;20186;-81
2023/10/01 05:09:43;;;;;;;0.40;0.32;;;9.10;99.90;;;;;;4995872;28;21015;-82
2023/10/01 05:12:11;;;;;;;0.40;0.40;;;9.10;99.90;;;;;;4984907;28;20194;-80
2023/10/01 05:14:56;;;;;;;0.40;0.40;;;9.00;99.90;;;;;;4997626;28;20246;-80
2023/10/01 05:17:21;;;;;;;0.50;0.45;;;9.00;99.90;;;;;;4982747;28;20194;-82
2023/10/01 05:19:47;;;;;;;0.90;0.67;;;9.10;99.90;;;;;;4986496;28;20351;-79
2023/10/01 05:22:13;;;;;;;6.37;2.00;;;9.30;99.90;;;;;;4986338;28;20218;-85
2023/10/01 05:24:41;;;;;;;2.10;2.00;;;9.30;99.90;;;;;;4985100;28;20674;-82
2023/10/01 05:27:18;;;;;;;0.40;0.20;;;9.40;99.90;;;;;;4980265;28;20190;-85
2023/10/01 05:29:46;;;;;;;0.93;0.93;;;9.40;99.90;;;;;;4997452;28;20213;-81
2023/10/01 05:32:13;;;;;;;1.15;1.05;;;9.50;99.90;;;;;;4980870;28;20197;-83
2023/10/01 05:34:46;;;;;;;0.40;0.30;;;9.40;99.90;;;;;;4980993;28;20196;-82
2023/10/01 05:37:20;;;;;;;0.77;0.77;;;9.40;99.90;;;;;;4998462;28;20614;-83
2023/10/01 05:39:56;;;;;;;0.50;0.50;;;9.40;99.90;;;;;;4985935;28;20745;-80
2023/10/01 05:42:25;;;;;;;0.40;0.30;;;9.40;99.90;;;;;;5003594;28;20198;-78
2023/10/01 05:44:54;;;;;;;0.50;0.40;;;9.50;99.90;;;;;;5014267;28;20198;-80
2023/10/01 05:47:20;;;;;;;0.40;0.30;;;;;;;;;;4981032;28;20186;-80
2023/10/01 05:49:49;;;;;;;1.13;0.77;;;10.40;99.90;;;;;;5002438;28;20236;-79
2023/10/01 05:52:17;;;;;;;0.40;0.28;;;11.80;99.90;;;;;;4987877;28;20479;-80
2023/10/01 05:54:52;;;;;;;1.35;0.70;;;11.80;99.90;;;;;;5003453;28;21200;-80
2023/10/01 05:57:18;;;;;;;0.45;0.45;;;13.20;99.90;;;;;;5007616;28;20205;-79
2023/10/01 05:59:56;;;;;;;0.60;0.60;;;14.50;99.90;;;;;;4994705;28;20419;-82
2023/10/01 06:02:41;;;;;;;0.60;0.60;;;15.30;99.90;;;;;;4999989;28;20810;-79
2023/10/01 06:07:55;;;;;;;1.53;1.43;;;16.10;99.90;;;;;;4999888;28;20560;-85
2023/10/01 06:10:26;;;;;;;2.07;1.97;;;;;;;;;;5000924;28;20540;-81
2023/10/01 06:12:56;;;;;;;1.07;0.60;;;18.80;99.90;;;;;;5003214;28;20182;-86
2023/10/01 06:15:25;;;;;;;0.60;0.40;;;19.80;99.90;;;;;;4996157;28;20461;-79
2023/10/01 06:17:51;;;;;;;3.13;1.77;;;20.10;99.90;;;;;;4998537;28;20462;-82
2023/10/01 06:20:26;;;;;;;1.53;1.43;;;20.00;99.90;;;;;;5006550;28;21406;-86
2023/10/01 06:22:54;;;;;;;0.60;0.47;;;20.10;99.90;;;;;;4992134;28;20471;-80
2023/10/01 06:25:37;;;;;;;1.67;1.37;;;20.10;99.90;;;;;;4997907;28;20749;-80
2023/10/01 06:28:07;;;;;;;2.03;1.53;;;19.60;99.90;;;;;;5004956;28;20966;-80
2023/10/01 06:30:34;;;;;;;0.73;0.53;;;18.60;99.90;;;;;;4981836;28;20473;-83
2023/10/01 06:32:59;;;;;;;2.63;1.13;;;19.70;99.90;;;;;;5005395;28;20453;-78
2023/10/01 06:35:25;;;;;;;2.20;0.70;;;18.10;99.90;;;;;;5015530;28;20461;-82
2023/10/01 06:37:53;;;;;;;0.60;0.60;;;18.20;99.90;;;;;;5006537;28;20215;-83
2023/10/01 06:40:31;;;;;;;1.37;0.87;;;;;;;;;;4985050;28;20805;-81
2023/10/01 06:43:01;;;;;;;1.27;1.17;;;19.60;99.90;;;;;;4986615;28;20452;-86
2023/10/01 06:45:38;;;;;;;0.60;0.47;;;;;;;;;;4993529;28;20449;-80
2023/10/01 06:48:15;;;;;;;1.23;0.80;;;21.90;99.90;;;;;;4985256;28;20465;-81
2023/10/01 06:50:44;;;;;;;1.10;0.87;;;22.50;99.90;;;;;;4989772;28;20472;-83
2023/10/01 06:53:10;;;;;;;1.23;1.03;;;23.10;99.90;;;;;;4988513;28;20446;-81
2023/10/01 06:55:36;;;;;;;4.97;2.17;;;22.50;99.90;;;;;;5005557;28;21065;-82
2023/10/01 06:58:06;;;;;;;2.50;1.17;;;22.20;99.90;;;;;;5009236;28;20467;-83
2023/10/01 07:00:36;;;;;;;0.83;0.73;;;22.90;99.90;;;;;;5017533;28;20548;-80
2023/10/01 07:03:21;;;;;;;5.20;1.70;;;24.70;99.90;;;;;;5010658;28;20682;-82
2023/10/01 07:05:47;;;;;;;5.90;3.00;;;;;;;;;;4988666;28;20514;-81
2023/10/01 07:08:18;;;;;;;1.10;1.07;;;26.80;93.90;;;;;;4999208;28;20998;-79
2023/10/01 07:10:46;;;;;;;1.03;1.03;;;26.80;94.20;;;;;;4991395;28;20461;-84
2023/10/01 07:13:15;;;;;;;1.70;1.37;;;27.10;92.30;;;;;;5011374;28;22004;-80
2023/10/01 07:15:43;;;;;;;2.10;2.00;;;26.90;91.20;;;;;;4990304;28;21987;-81
2023/10/01 07:18:15;;;;;;;1.50;1.40;;;26.30;89.90;;;;;;5009368;28;20466;-82
2023/10/01 07:20:45;;;;;;;1.17;1.00;;;25.20;91.70;;;;;;5008372;28;20439;-83
2023/10/01 07:23:14;;;;;;;2.10;1.90;;;25.20;92.00;;;;;;5005366;28;20475;-80
2023/10/01 07:25:42;;;;;;;0.90;0.83;;;25.40;92.90;;;;;;5013118;28;20457;-82
2023/10/01 07:28:12;;;;;;;0.87;0.87;;;;;;;;;;5008355;28;20473;-83
2023/10/01 07:30:45;;;;;;;1.50;1.40;;;25.30;92.60;;;;;;4987408;28;20477;-81
2023/10/01 07:33:17;;;;;;;1.57;1.03;;;25.30;92.90;;;;;;4989657;28;20455;-82
2023/10/01 07:35:45;;;;;;;1.67;1.27;;;25.70;93.50;;;;;;4990251;28;20658;-82
2023/10/01 07:38:13;;;;;;;5.30;2.20;;;26.00;92.80;;;;;;5013245;28;20697;-81
2023/10/01 07:40:57;;;;;;;0.70;0.50;;;;;;;;;;5007121;28;21436;-87
2023/10/01 07:43:32;;;;;;;4.87;3.90;;;26.20;91.80;;;;;;5006207;28;21874;-80
2023/10/01 07:45:59;;;;;;;0.63;0.60;;;26.70;91.90;;;;;;5007490;28;20475;-85
2023/10/01 07:48:35;;;;;;;1.10;1.00;;;27.30;90.10;;;;;;4993759;28;20464;-84
2023/10/01 07:51:04;;;;;;;1.70;1.20;;;26.90;89.50;;;;;;5013594;28;20533;-82
2023/10/01 07:53:33;;;;;;;1.30;1.20;;;26.60;91.00;;;;;;5009976;28;20476;-83
2023/10/01 07:56:02;;;;;;;1.60;1.50;;;27.60;89.70;;;;;;4992311;28;20443;-80
2023/10/01 07:58:47;;;;;;;1.87;1.77;;;27.50;90.10;;;;;;5009007;28;20481;-81
2023/10/01 08:03:58;;;;;;;0.97;0.93;;;27.50;86.90;;;;;;5014567;28;20452;-81
2023/10/01 08:06:30;;;;;;;4.63;2.40;;;26.80;87.60;;;;;;4985571;28;20444;-84
2023/10/01 08:09:01;;;;;;;0.97;0.87;;;26.90;88.20;;;;;;4987435;28;20237;-81
2023/10/01 08:11:57;;;;;;;3.80;1.13;;;26.90;89.00;;;;;;4993860;28;21045;-81
2023/10/01 08:14:16;;;;;;;1.57;1.40;;;27.50;87.80;;;;;;5006921;28;20440;-82
2023/10/01 08:16:48;;;;;;;0.80;0.60;;;27.80;87.00;;;;;;5016055;28;20464;-79
2023/10/01 08:19:20;;;;;;;1.53;1.30;;;27.80;86.40;;;;;;5008992;28;20539;-80
2023/10/01 08:21:50;;;;;;;1.93;1.47;;;28.20;83.80;;;;;;4992179;28;20445;-77
2023/10/01 08:24:20;;;;;;;1.27;1.17;;;29.00;84.40;;;;;;4995137;28;20439;-81
2023/10/01 08:26:57;;;;;;;3.07;2.40;;;28.90;84.90;;;;;;4994836;28;20445;-84
2023/10/01 08:29:36;;;;;;;1.30;1.20;;;30.40;79.10;;;;;;4992818;28;20579;-80
2023/10/01 08:32:08;;;;;;;2.33;2.13;;;29.50;75.80;;;;;;5013916;28;21560;-85
2023/10/01 08:35:01;;;;;;;2.40;2.10;;;;;;;;;;5011959;28;20445;-81
2023/10/01 08:37:22;;;;;;;1.67;1.53;;;;;;;;;;5013861;28;20444;-82
2023/10/01 08:39:48;;;;;;;1.33;1.13;;;;;;;;;;4999464;28;20463;-81
2023/10/01 08:42:17;;;;;;;1.40;1.30;;;29.00;77.60;;;;;;5011388;28;20464;-84
2023/10/01 08:44:50;;;;;;;1.17;1.07;;;29.00;78.30;;;;;;5005247;28;20456;-80
2023/10/01 08:47:37;;;;;;;1.87;1.53;;;30.90;69.20;;;;;;5005594;28;20461;-82
2023/10/01 08:50:26;;;;;;;2.80;2.40;;;30.90;70.00;;;;;;4994603;28;20485;-80
2023/10/01 08:52:57;;;;;;;2.30;2.10;;;31.40;70.10;;;;;;4991175;28;20478;-79
2023/10/01 08:58:25;;;;;;;2.50;2.40;;;32.40;65.90;;;;;;5004050;28;20483;-81
2023/10/01 09:00:56;;;;;;;3.03;2.83;;;32.20;64.90;;;;;;4995522;28;21166;-86
2023/10/01 09:03:29;;;;;;;4.50;4.30;;;30.30;64.10;;;;;;4991997;28;20462;-84
2023/10/01 09:09:19;;;;;;;3.33;2.13;;;29.20;67.30;;;;;;4980394;28;20655;-81
2023/10/01 09:11:50;;;;;;;2.13;2.03;;;28.20;71.40;;;;;;4983754;28;20437;-86
2023/10/01 09:14:19;;;;;;;5.13;1.73;;;27.80;74.40;;;;;;4997653;28;20504;-86
2023/10/01 09:16:58;;;;;;;1.80;1.70;;;28.70;74.50;;;;;;4990229;28;20448;-84
2023/10/01 09:19:31;;;;;;;2.97;2.73;;;28.80;73.50;;;;;;5005481;28;20530;-84
2023/10/01 09:22:15;;;;;;;2.30;2.10;;;27.70;76.80;;;;;;5003192;28;20502;-86
2023/10/01 09:24:43;;;;;;;1.10;1.10;;;;;;;;;;5016345;28;20443;-82
2023/10/01 09:27:19;;;;;;;1.37;1.27;;;27.40;78.70;;;;;;5007507;28;20436;-84
2023/10/01 09:29:57;;;;;;;0.80;0.80;;;27.40;81.10;;;;;;4980847;28;20468;-83
2023/10/01 09:32:51;;;;;;;1.47;1.37;;;27.90;78.30;;;;;;4985698;28;22545;-85
2023/10/01 09:35:41;;;;;;;2.03;1.93;;;27.60;82.30;;;;;;5003966;28;20446;-83
2023/10/01 09:38:10;;;;;;;2.40;2.20;;;27.60;81.00;;;;;;5002043;28;20811;-83
2023/10/01 09:40:46;;;;;;;2.23;2.03;;;28.00;79.40;;;;;;4984560;28;20486;-85
2023/10/01 09:43:19;;;;;;;5.07;2.33;;;28.00;79.30;;;;;;4989015;28;20825;-84
2023/10/01 09:45:47;;;;;;;3.77;3.47;;;27.90;80.60;;;;;;5004209;28;20470;-87
2023/10/01 09:48:34;;;;;;;3.77;3.47;;;27.90;78.20;;;;;;5010627;28;20484;-85
2023/10/01 09:51:08;;;;;;;6.07;2.80;;;27.70;78.70;;;;;;4991765;28;20463;-88
2023/10/01 09:54:02;;;;;;;2.30;1.60;;;26.60;82.20;;;;;;4983804;28;20465;-84
2023/10/01 09:56:30;;;;;;;1.10;0.73;;;25.30;87.20;;;;;;4994551;28;20496;-83
2023/10/01 09:59:07;;;;;;;3.73;1.40;;;24.40;90.90;;;;;;4996608;28;20498;-84
2023/10/01 10:01:35;;;;;;;2.10;1.57;;;24.20;91.80;;;;;;4983271;28;20483;-85
2023/10/01 10:04:03;;;;;;;1.70;1.60;;;24.00;93.70;;;;;;4985451;28;20548;-86
2023/10/01 10:06:29;;;;;;;0.90;0.70;;;23.90;94.00;;;;;;4978335;28;20656;-83
2023/10/01 10:09:05;;;;;;;2.03;1.17;;;25.70;95.40;;;;;;4971238;28;20462;-83
2023/10/01 10:11:36;;;;;;;0.63;0.53;;;23.70;95.80;;;;;;4962668;28;20565;-86
2023/10/01 10:14:28;;;;;;;1.33;1.23;;;23.40;96.80;;;;;;4981123;28;20449;-88
2023/10/01 10:16:57;;;;;;;2.80;1.93;;;23.00;98.50;;;;;;4976652;28;20459;-88
2023/10/01 10:19:24;;;;;;;1.37;1.27;;;23.00;99.20;;;;;;4986514;28;20465;-85
2023/10/01 10:24:29;;;;;;;4.73;3.43;;;23.00;99.90;;;;;;5000571;28;20461;-83
2023/10/01 10:27:01;;;;;;;0.60;0.50;;;23.10;99.90;;;;;;4997544;28;20485;-84
2023/10/01 10:30:00;;;;;;;1.63;1.53;;;23.30;99.90;;;;;;4998372;28;20484;-82
2023/10/01 10:32:44;;;;;;;1.73;0.83;;;23.40;99.60;;;;;;4974927;28;20469;-83
2023/10/01 10:35:14;;;;;;;1.00;0.87;;;23.20;99.90;;;;;;4989613;28;20483;-84
2023/10/01 10:37:53;;;;;;;1.77;0.60;;;23.00;99.90;;;;;;4971655;28;20445;-83
2023/10/01 10:42:58;;;;;;;1.87;1.70;;;23.20;99.90;;;;;;4986232;28;20449;-86
2023/10/01 10:45:29;;;;;;;0.60;0.50;;;23.30;99.90;;;;;;4964266;28;20444;-85
2023/10/01 10:47:58;;;;;;;5.17;3.00;;;23.20;99.80;;;;;;4964815;28;20549;-83
2023/10/01 10:50:49;;;;;;;1.70;0.73;;;23.30;99.90;;;;;;4980853;28;20848;-82
2023/10/01 10:53:42;;;;;;;1.90;0.77;;;23.20;99.90;;;;;;4976407;28;22102;-83
2023/10/01 10:56:13;;;;;;;0.60;0.50;;;23.20;99.90;;;;;;4968848;28;21446;-86
2023/10/01 10:58:44;;;;;;;1.30;0.87;;;22.90;99.90;;;;;;4970742;28;20970;-84
2023/10/01 11:01:22;;;;;;;0.60;0.53;;;23.30;99.90;;;;;;4982716;28;20465;-82
2023/10/01 11:03:56;;;;;;;1.63;1.53;;;23.30;99.90;;;;;;4973890;28;20463;-84
2023/10/01 11:06:23;;;;;;;1.17;0.80;;;23.40;98.50;;;;;;4984408;28;20449;-85
2023/10/01 11:08:53;;;;;;;1.00;0.80;;;23.10;99.40;;;;;;4999973;28;20473;-82
2023/10/01 11:11:30;;;;;;;1.87;1.43;;;23.10;99.60;;;;;;4985550;28;20465;-82
2023/10/01 11:14:02;;;;;;;0.70;0.43;;;23.10;99.90;;;;;;4988568;28;20441;-85
2023/10/01 11:16:34;;;;;;;0.60;0.60;;;23.30;99.90;;;;;;4987926;28;20451;-83
2023/10/01 11:19:14;;;;;;;1.37;1.27;;;23.20;99.10;;;;;;4989747;28;20458;-81
2023/10/01 11:21:59;;;;;;;1.17;0.77;;;23.30;99.40;;;;;;4990998;28;20577;-82
2023/10/01 11:24:33;;;;;;;0.70;0.70;;;23.50;98.20;;;;;;5008275;28;20637;-81
2023/10/01 11:30:19;;;;;;;1.27;1.23;;;23.50;98.10;;;;;;5015874;28;21016;-87
2023/10/01 11:35:40;;;;;;;1.43;1.30;;;23.70;97.30;;;;;;5016920;28;20500;-87
2023/10/01 11:38:13;;;;;;;1.20;1.00;;;25.50;98.10;;;;;;5023046;28;20484;-86
2023/10/01 11:43:35;;;;;;;4.97;1.57;;;23.60;96.60;;;;;;5013727;28;20501;-82
2023/10/01 11:46:34;;;;;;;0.70;0.63;;;24.70;97.40;;;;;;5009247;28;20445;-79
2023/10/01 11:49:06;;;;;;;2.07;1.57;;;23.60;96.50;;;;;;5002916;28;20794;-81
2023/10/01 11:51:54;;;;;;;3.57;0.83;;;23.60;97.80;;;;;;4997694;28;20472;-81
2023/10/01 11:54:53;;;;;;;1.00;0.50;;;23.60;97.50;;;;;;4996622;28;20445;-83
2023/10/01 11:57:35;;;;;;;0.80;0.80;;;23.80;96.30;;;;;;5013746;28;20437;-80
2023/10/01 12:00:01;;;;;;;2.67;1.70;;;23.90;95.60;;;;;;5008757;28;20450;-82
2023/10/01 12:02:32;;;;;;;1.43;0.43;;;24.00;95.30;;;;;;4990718;28;20443;-79
2023/10/01 12:05:06;;;;;;;0.50;0.40;;;24.20;94.70;;;;;;4993331;28;20193;-82
2023/10/01 12:07:39;;;;;;;0.97;0.70;;;24.20;93.70;;;;;;5010850;28;20505;-82
2023/10/01 12:10:07;;;;;;;1.30;1.20;;;24.20;94.00;;;;;;5008155;28;20502;-81
2023/10/01 12:12:39;;;;;;;0.73;0.53;;;;;;;;;;5010386;28;20455;-87
2023/10/01 12:17:53;;;;;;;2.17;1.27;;;24.10;93.90;;;;;;5015168;28;20453;-77
2023/10/01 12:20:23;;;;;;;2.00;1.13;;;;;;;;;;5023246;28;20450;-82
2023/10/01 12:26:36;;;;;;;1.37;0.90;;;24.20;94.80;;;;;;5013331;28;20465;-78
2023/10/01 12:28:29;;;;;;;1.40;0.93;;;;;;;;;;4986021;28;20469;-81
2023/10/01 12:31:30;;;;;;;1.27;1.13;;;24.30;92.40;;;;;;4992514;28;20463;-83
2023/10/01 12:33:58;;;;;;;1.07;0.83;;;;;;;;;;5013415;28;20449;-81
2023/10/01 12:41:56;;;;;;;0.67;0.67;;;24.40;93.30;;;;;;5011366;28;20490;-81
2023/10/01 12:44:28;;;;;;;1.10;0.90;;;24.30;94.40;;;;;;4995248;28;20437;-78
2023/10/01 12:46:54;;;;;;;2.37;1.27;;;;;;;;;;5014913;28;20448;-83
2023/10/01 12:49:20;;;;;;;1.80;0.90;;;;;;;;;;5002879;28;20742;-79
2023/10/01 12:51:48;;;;;;;0.70;0.60;;;;;;;;;;4995500;28;20453;-79
2023/10/01 12:54:25;;;;;;;2.77;1.23;;;24.50;92.20;;;;;;4990635;28;20439;-83
2023/10/01 12:57:02;;;;;;;1.90;1.67;;;24.30;92.00;;;;;;4995023;28;20446;-84
2023/10/01 12:59:42;;;;;;;2.87;1.53;;;24.50;91.60;;;;;;5010437;28;20445;-82
2023/10/01 13:07:40;;;;;;;2.47;0.80;;;;;;;;;;5012174;28;20440;-80
2023/10/01 13:10:06;;;;;;;1.33;1.00;;;24.50;91.00;;;;;;5008625;28;20474;-82
2023/10/01 13:12:39;;;;;;;0.50;0.37;;;24.40;91.10;;;;;;5012968;28;20458;-84
2023/10/01 13:15:14;;;;;;;1.10;0.90;;;24.40;91.30;;;;;;5007773;28;20537;-83
2023/10/01 13:17:43;;;;;;;0.70;0.60;;;24.20;90.90;;;;;;5000977;28;20441;-83
2023/10/01 13:20:24;;;;;;;2.43;1.03;;;24.20;91.30;;;;;;4983470;28;20446;-78
2023/10/01 13:22:59;;;;;;;1.50;0.90;;;24.40;91.30;;;;;;5002182;28;20446;-79
2023/10/01 13:25:25;;;;;;;2.30;1.50;;;;;;;;;;4982784;28;20461;-84
2023/10/01 13:28:01;;;;;;;0.70;0.60;;;24.60;90.80;;;;;;4980975;28;20444;-81
2023/10/01 13:30:30;;;;;;;1.90;1.10;;;24.70;91.60;;;;;;5001145;28;20474;-81
2023/10/01 13:33:14;;;;;;;2.50;0.93;;;24.70;90.90;;;;;;5014869;28;20479;-83
2023/10/01 13:35:52;;;;;;;1.03;0.80;;;24.40;90.40;;;;;;4990291;28;20572;-85
2023/10/01 13:38:27;;;;;;;0.73;0.60;;;;;;;;;;5005047;28;20560;-81
2023/10/01 14:08:43;;;;;;;0.80;0.73;;;24.50;90.60;;;;;;4986849;28;20975;-80
2023/10/01 14:11:09;;;;;;;1.80;1.07;;;24.60;90.20;;;;;;5002367;28;20564;-83
2023/10/01 14:13:35;;;;;;;1.33;1.23;;;24.50;90.30;;;;;;5004620;28;20446;-79
2023/10/01 14:16:17;;;;;;;1.17;1.07;;;24.60;90.70;;;;;;5009473;28;20449;-81
2023/10/01 14:19:13;;;;;;;1.37;1.27;;;25.20;90.00;;;;;;5005766;28;20450;-84
2023/10/01 14:21:39;;;;;;;3.03;2.73;;;;;;;;;;5015050;28;20434;-79
2023/10/01 14:24:25;;;;;;;2.20;1.17;;;24.20;89.40;;;;;;4992532;28;20786;-82
2023/10/01 14:26:51;;;;;;;0.50;0.40;;;24.20;91.00;;;;;;5010775;28;20517;-81
2023/10/01 14:29:22;;;;;;;1.70;0.97;;;;;;;;;;4995602;28;20470;-86
2023/10/01 14:31:54;;;;;;;2.63;1.20;;;24.30;89.90;;;;;;4992944;28;20548;-86
2023/10/01 14:34:21;;;;;;;1.47;0.40;;;24.50;90.00;;;;;;4992213;28;20478;-83
2023/10/01 14:36:51;;;;;;;2.07;1.27;;;24.40;90.30;;;;;;4984650;28;20467;-82
2023/10/01 14:39:18;;;;;;;1.23;1.23;;;24.40;89.80;;;;;;4983078;28;20473;-80
2023/10/01 14:41:45;;;;;;;1.07;0.97;;;25.10;90.10;;;;;;4983395;28;20458;-80
2023/10/01 14:44:14;;;;;;;0.53;0.40;;;24.20;90.20;;;;;;5005673;28;20445;-84
2023/10/01 14:46:51;;;;;;;2.30;0.97;;;24.40;90.70;;;;;;5006408;28;20452;-86
2023/10/01 14:49:22;;;;;;;1.03;0.63;;;24.30;90.20;;;;;;4999254;28;24064;-83